createdAt,value
2018-02-01T00:00:38.290Z,1006.22
2018-02-01T00:01:38.241Z,1006.26
2018-02-01T00:02:38.310Z,1006.27
2018-02-01T00:03:38.152Z,1006.27
2018-02-01T00:04:38.263Z,1006.34
2018-02-01T00:05:38.254Z,1006.32
2018-02-01T00:06:38.173Z,1006.35
2018-02-01T00:07:38.158Z,1006.32
2018-02-01T00:08:38.723Z,1006.31
2018-02-01T00:09:38.179Z,1006.29
2018-02-01T00:10:38.137Z,1006.28
2018-02-01T00:11:38.149Z,1006.25
2018-02-01T00:12:38.091Z,1006.26
2018-02-01T00:13:38.166Z,1006.32
2018-02-01T00:14:38.136Z,1006.34
2018-02-01T00:15:38.178Z,1006.33
2018-02-01T00:16:38.109Z,1006.32
2018-02-01T00:17:38.120Z,1006.36
2018-02-01T00:18:38.117Z,1006.31
2018-02-01T00:19:38.137Z,1006.24
2018-02-01T00:20:38.899Z,1006.29
2018-02-01T00:21:38.250Z,1006.29
2018-02-01T00:22:38.231Z,1006.27
2018-02-01T00:23:38.156Z,1006.27
2018-02-01T00:24:38.137Z,1006.3
2018-02-01T00:25:38.088Z,1006.3
2018-02-01T00:26:38.159Z,1006.29
2018-02-01T00:27:38.222Z,1006.27
2018-02-01T00:28:38.197Z,1006.28
2018-02-01T00:29:38.103Z,1006.31
2018-02-01T00:30:38.241Z,1006.32
2018-02-01T00:31:38.095Z,1006.29
2018-02-01T00:32:38.939Z,1006.36
2018-02-01T00:33:38.142Z,1006.38
2018-02-01T00:34:38.164Z,1006.37
2018-02-01T00:35:38.077Z,1006.37
2018-02-01T00:36:38.126Z,1006.39
2018-02-01T00:37:38.229Z,1006.27
2018-02-01T00:38:38.163Z,1006.28
2018-02-01T00:39:38.229Z,1006.31
2018-02-01T00:40:38.191Z,1006.34
2018-02-01T00:41:38.196Z,1006.32
2018-02-01T00:42:39.073Z,1006.34
2018-02-01T00:43:38.290Z,1006.27
2018-02-01T00:44:39.282Z,1006.28
2018-02-01T00:45:38.403Z,1006.29
2018-02-01T00:46:38.362Z,1006.35
2018-02-01T00:47:38.254Z,1006.33
2018-02-01T00:48:38.737Z,1006.38
2018-02-01T00:49:39.089Z,1006.4
2018-02-01T00:50:38.398Z,1006.35
2018-02-01T00:51:38.396Z,1006.38
2018-02-01T00:52:38.362Z,1006.35
2018-02-01T00:53:38.934Z,1006.37
2018-02-01T00:54:38.359Z,1006.39
2018-02-01T00:55:38.283Z,1006.39
2018-02-01T00:56:38.240Z,1006.37
2018-02-01T00:57:38.412Z,1006.4
2018-02-01T00:58:38.330Z,1006.3
2018-02-01T00:59:38.396Z,1006.35
2018-02-01T01:00:38.427Z,1006.33
2018-02-01T01:01:38.422Z,1006.35
2018-02-01T01:02:38.195Z,1006.37
2018-02-01T01:03:38.410Z,1006.35
2018-02-01T01:04:38.338Z,1006.31
2018-02-01T01:05:38.258Z,1006.36
2018-02-01T01:06:39.103Z,1006.29
2018-02-01T01:07:38.248Z,1006.3
2018-02-01T01:08:38.284Z,1006.34
2018-02-01T01:09:38.248Z,1006.29
2018-02-01T01:10:40.292Z,1006.31
2018-02-01T01:11:39.148Z,1006.38
2018-02-01T01:12:38.925Z,1006.37
2018-02-01T01:13:38.300Z,1006.42
2018-02-01T01:14:38.318Z,1006.47
2018-02-01T01:15:38.315Z,1006.45
2018-02-01T01:16:38.297Z,1006.45
2018-02-01T01:17:39.345Z,1006.4
2018-02-01T01:18:38.253Z,1006.38
2018-02-01T01:19:38.461Z,1006.36
2018-02-01T01:20:38.364Z,1006.32
2018-02-01T01:21:38.433Z,1006.34
2018-02-01T01:22:38.290Z,1006.38
2018-02-01T01:23:38.450Z,1006.41
2018-02-01T01:24:39.051Z,1006.37
2018-02-01T01:25:38.358Z,1006.38
2018-02-01T01:26:38.343Z,1006.38
2018-02-01T01:27:38.325Z,1006.45
2018-02-01T01:28:38.334Z,1006.44
2018-02-01T01:29:38.321Z,1006.47
2018-02-01T01:30:38.418Z,1006.42
2018-02-01T01:31:38.366Z,1006.48
2018-02-01T01:32:38.396Z,1006.49
2018-02-01T01:33:38.353Z,1006.51
2018-02-01T01:34:38.341Z,1006.52
2018-02-01T01:35:38.373Z,1006.52
2018-02-01T01:36:38.504Z,1006.55
2018-02-01T01:37:38.268Z,1006.5
2018-02-01T01:38:38.455Z,1006.51
2018-02-01T01:39:39.160Z,1006.55
2018-02-01T01:40:38.346Z,1006.55
2018-02-01T01:41:38.472Z,1006.65
2018-02-01T01:42:38.418Z,1006.64
2018-02-01T01:43:38.436Z,1006.61
2018-02-01T01:44:38.272Z,1006.63
2018-02-01T01:45:38.301Z,1006.62
2018-02-01T01:46:38.334Z,1006.55
2018-02-01T01:47:38.330Z,1006.53
2018-02-01T01:48:38.303Z,1006.52
2018-02-01T01:49:38.425Z,1006.53
2018-02-01T01:50:38.393Z,1006.53
2018-02-01T01:51:38.435Z,1006.5
2018-02-01T01:52:38.533Z,1006.46
2018-02-01T01:53:38.306Z,1006.52
2018-02-01T01:54:38.358Z,1006.47
2018-02-01T01:55:38.419Z,1006.45
2018-02-01T01:56:40.712Z,1006.46
2018-02-01T01:57:38.391Z,1006.39
2018-02-01T01:58:38.461Z,1006.44
2018-02-01T01:59:38.527Z,1006.43
2018-02-01T02:00:38.363Z,1006.43
2018-02-01T02:01:38.525Z,1006.35
2018-02-01T02:02:38.332Z,1006.29
2018-02-01T02:03:38.296Z,1006.2
2018-02-01T02:04:38.386Z,1006.14
2018-02-01T02:05:38.762Z,1006.1
2018-02-01T02:06:38.402Z,1006.17
2018-02-01T02:07:38.353Z,1006.17
2018-02-01T02:08:38.337Z,1006.2
2018-02-01T02:09:39.130Z,1006.22
2018-02-01T02:10:38.445Z,1006.27
2018-02-01T02:11:39.052Z,1006.2
2018-02-01T02:12:39.213Z,1006.2
2018-02-01T02:13:38.428Z,1006.2
2018-02-01T02:14:38.637Z,1006.17
2018-02-01T02:15:38.447Z,1006.21
2018-02-01T02:16:38.472Z,1006.23
2018-02-01T02:17:38.345Z,1006.22
2018-02-01T02:18:38.794Z,1006.2
2018-02-01T02:19:38.848Z,1006.2
2018-02-01T02:20:38.695Z,1006.2
2018-02-01T02:21:39.546Z,1006.22
2018-02-01T02:22:38.514Z,1006.23
2018-02-01T02:23:38.611Z,1006.24
2018-02-01T02:24:38.453Z,1006.26
2018-02-01T02:25:38.329Z,1006.21
2018-02-01T02:26:38.439Z,1006.15
2018-02-01T02:27:39.134Z,1006.19
2018-02-01T02:28:38.604Z,1006.15
2018-02-01T02:29:38.489Z,1006.17
2018-02-01T02:30:38.341Z,1006.14
2018-02-01T02:31:38.410Z,1006.13
2018-02-01T02:32:38.431Z,1006.14
2018-02-01T02:33:38.767Z,1006.13
2018-02-01T02:34:38.425Z,1006.13
2018-02-01T02:35:38.318Z,1006.14
2018-02-01T02:36:38.981Z,1006.08
2018-02-01T02:37:38.588Z,1006.05
2018-02-01T02:38:40.954Z,1006
2018-02-01T02:39:38.802Z,1005.99
2018-02-01T02:40:38.421Z,1005.96
2018-02-01T02:41:38.418Z,1005.98
2018-02-01T02:42:39.215Z,1005.99
2018-02-01T02:43:38.378Z,1006
2018-02-01T02:44:38.459Z,1006.04
2018-02-01T02:45:38.569Z,1006.03
2018-02-01T02:46:38.391Z,1006
2018-02-01T02:47:38.475Z,1006
2018-02-01T02:51:15.144Z,1006.04
2018-02-01T02:51:38.755Z,1006.05
2018-02-01T02:52:38.462Z,1006.07
2018-02-01T02:53:38.487Z,1006.08
2018-02-01T02:54:38.495Z,1006.02
2018-02-01T02:55:38.632Z,1006.01
2018-02-01T02:56:38.511Z,1006
2018-02-01T02:57:38.612Z,1005.99
2018-02-01T02:58:38.518Z,1005.98
2018-02-01T02:59:38.454Z,1006.05
2018-02-01T03:00:38.528Z,1006.09
2018-02-01T03:01:38.418Z,1006.08
2018-02-01T03:02:38.469Z,1006.06
2018-02-01T03:03:38.530Z,1006.08
2018-02-01T03:04:38.485Z,1006.07
2018-02-01T03:05:38.553Z,1006.01
2018-02-01T03:06:38.573Z,1006.02
2018-02-01T03:07:38.597Z,1006.03
2018-02-01T03:08:38.422Z,1006.05
2018-02-01T03:09:38.932Z,1006.01
2018-02-01T03:10:39.565Z,1006.04
2018-02-01T03:11:38.441Z,1006.03
2018-02-01T03:12:38.507Z,1006.01
2018-02-01T03:13:38.481Z,1005.98
2018-02-01T03:14:38.664Z,1005.98
2018-02-01T03:15:39.071Z,1005.98
2018-02-01T03:16:38.632Z,1005.94
2018-02-01T03:17:38.670Z,1006
2018-02-01T03:18:39.290Z,1005.94
2018-02-01T03:19:38.614Z,1005.9
2018-02-01T03:20:38.653Z,1005.93
2018-02-01T03:21:38.571Z,1005.99
2018-02-01T03:22:38.636Z,1005.97
2018-02-01T03:23:38.643Z,1006
2018-02-01T03:24:39.513Z,1006.03
2018-02-01T03:25:38.503Z,1006.01
2018-02-01T03:26:38.449Z,1006
2018-02-01T03:27:38.628Z,1006
2018-02-01T03:28:38.609Z,1006.03
2018-02-01T03:29:38.682Z,1006.01
2018-02-01T03:30:38.695Z,1006.03
2018-02-01T03:31:39.117Z,1006.03
2018-02-01T03:32:38.676Z,1006.03
2018-02-01T03:33:38.769Z,1006.05
2018-02-01T03:34:39.387Z,1006.09
2018-02-01T03:35:38.755Z,1006.09
2018-02-01T03:36:38.632Z,1006.09
2018-02-01T03:37:38.740Z,1006.12
2018-02-01T03:38:38.684Z,1006.08
2018-02-01T03:39:39.818Z,1006.12
2018-02-01T03:40:38.606Z,1006.08
2018-02-01T03:41:38.449Z,1006.12
2018-02-01T03:42:38.705Z,1006.12
2018-02-01T03:43:38.508Z,1006.11
2018-02-01T03:44:38.604Z,1006.12
2018-02-01T03:45:38.437Z,1006.12
2018-02-01T03:46:38.534Z,1006.11
2018-02-01T03:47:38.584Z,1006.15
2018-02-01T03:48:38.620Z,1006.19
2018-02-01T03:49:39.294Z,1006.17
2018-02-01T03:50:38.552Z,1006.18
2018-02-01T03:51:38.662Z,1006.16
2018-02-01T03:52:38.604Z,1006.16
2018-02-01T03:55:39.431Z,1006.26
2018-02-01T03:56:38.712Z,1006.24
2018-02-01T03:57:38.590Z,1006.29
2018-02-01T03:58:38.514Z,1006.22
2018-02-01T03:59:38.634Z,1006.2
2018-02-01T04:00:38.684Z,1006.19
2018-02-01T04:01:38.864Z,1006.2
2018-02-01T04:02:38.777Z,1006.16
2018-02-01T04:03:40.498Z,1006.22
2018-02-01T04:04:40.534Z,1006.17
2018-02-01T04:05:38.895Z,1006.18
2018-02-01T04:06:38.687Z,1006.14
2018-02-01T04:07:38.829Z,1006.19
2018-02-01T04:08:39.558Z,1006.19
2018-02-01T04:09:38.555Z,1006.19
2018-02-01T04:10:39.459Z,1006.17
2018-02-01T04:11:38.699Z,1006.18
2018-02-01T04:12:38.823Z,1006.16
2018-02-01T04:13:38.546Z,1006.11
2018-02-01T04:14:38.634Z,1006.09
2018-02-01T04:15:39.135Z,1006.07
2018-02-01T04:16:38.545Z,1006.05
2018-02-01T04:17:38.636Z,1006.02
2018-02-01T04:18:38.635Z,1006.08
2018-02-01T04:19:38.779Z,1006.09
2018-02-01T04:20:38.560Z,1006.07
2018-02-01T04:21:39.084Z,1006.04
2018-02-01T04:22:38.676Z,1006
2018-02-01T04:23:40.451Z,1006.02
2018-02-01T04:24:38.642Z,1006.08
2018-02-01T04:25:38.938Z,1006.11
2018-02-01T04:26:38.749Z,1006.03
2018-02-01T04:27:38.681Z,1006.05
2018-02-01T04:28:38.725Z,1006.02
2018-02-01T04:29:39.377Z,1005.97
2018-02-01T04:30:39.592Z,1005.96
2018-02-01T04:31:38.730Z,1005.93
2018-02-01T04:32:38.704Z,1005.97
2018-02-01T04:33:38.810Z,1005.98
2018-02-01T04:34:39.059Z,1006.02
2018-02-01T04:35:39.556Z,1006.04
2018-02-01T04:36:39.359Z,1006.06
2018-02-01T04:37:39.644Z,1006.02
2018-02-01T04:38:39.048Z,1006.08
2018-02-01T04:39:38.608Z,1006.07
2018-02-01T04:40:38.973Z,1006.1
2018-02-01T04:41:39.261Z,1006.1
2018-02-01T04:42:38.565Z,1006.07
2018-02-01T04:43:38.526Z,1006.08
2018-02-01T04:44:38.678Z,1006.06
2018-02-01T04:45:39.018Z,1006.05
2018-02-01T04:46:39.603Z,1006.05
2018-02-01T04:47:38.615Z,1006.04
2018-02-01T04:48:38.722Z,1006.08
2018-02-01T04:52:10.203Z,1006.05
2018-02-01T04:52:38.728Z,1006.06
2018-02-01T04:53:37.956Z,1006.06
2018-02-01T04:54:38.182Z,1006.07
2018-02-01T04:55:38.674Z,1006.12
2018-02-01T04:56:38.068Z,1006.14
2018-02-01T04:57:38.181Z,1006.11
2018-02-01T04:58:37.812Z,1006.09
2018-02-01T04:59:37.823Z,1006.09
2018-02-01T05:00:39.613Z,1006.07
2018-02-01T05:01:37.852Z,1006.1
2018-02-01T05:02:37.997Z,1006.08
2018-02-01T05:03:37.950Z,1006.11
2018-02-01T05:04:38.143Z,1006.13
2018-02-01T05:05:38.028Z,1006.16
2018-02-01T05:06:37.882Z,1006.21
2018-02-01T05:07:38.011Z,1006.2
2018-02-01T05:08:37.841Z,1006.23
2018-02-01T05:09:38.109Z,1006.18
2018-02-01T05:10:38.106Z,1006.15
2018-02-01T05:11:38.065Z,1006.17
2018-02-01T05:12:37.862Z,1006.14
2018-02-01T05:13:37.941Z,1006.17
2018-02-01T05:14:39.381Z,1006.18
2018-02-01T05:15:38.314Z,1006.18
2018-02-01T05:16:37.982Z,1006.19
2018-02-01T05:17:38.175Z,1006.14
2018-02-01T05:18:37.963Z,1006.07
2018-02-01T05:19:37.882Z,1006.05
2018-02-01T05:20:37.824Z,1005.96
2018-02-01T05:21:37.926Z,1005.97
2018-02-01T05:22:38.070Z,1005.93
2018-02-01T05:23:38.304Z,1005.95
2018-02-01T05:24:37.986Z,1005.94
2018-02-01T05:25:38.102Z,1005.96
2018-02-01T05:26:37.881Z,1005.96
2018-02-01T05:27:38.432Z,1005.95
2018-02-01T05:28:38.752Z,1005.95
2018-02-01T05:29:38.336Z,1005.95
2018-02-01T05:30:37.953Z,1005.97
2018-02-01T05:31:38.208Z,1005.94
2018-02-01T05:32:38.734Z,1005.95
2018-02-01T05:33:37.891Z,1005.92
2018-02-01T05:34:37.971Z,1005.98
2018-02-01T05:35:39.655Z,1005.99
2018-02-01T05:36:38.000Z,1006
2018-02-01T05:37:37.917Z,1005.98
2018-02-01T05:38:37.973Z,1005.99
2018-02-01T05:39:38.813Z,1005.98
2018-02-01T05:40:38.553Z,1006.02
2018-02-01T05:41:57.598Z,1006.01
2018-02-01T05:42:37.817Z,1005.95
2018-02-01T05:43:37.997Z,1005.93
2018-02-01T05:44:37.937Z,1005.95
2018-02-01T05:45:38.339Z,1005.9
2018-02-01T05:46:38.015Z,1005.89
2018-02-01T05:47:38.037Z,1005.87
2018-02-01T05:48:38.381Z,1005.86
2018-02-01T05:49:37.981Z,1005.85
2018-02-01T05:50:38.549Z,1005.88
2018-02-01T05:51:38.893Z,1005.87
2018-02-01T05:52:38.116Z,1005.88
2018-02-01T05:53:38.148Z,1005.88
2018-02-01T05:54:38.371Z,1005.9
2018-02-01T05:55:38.203Z,1005.95
2018-02-01T05:56:37.999Z,1005.94
2018-02-01T05:57:38.014Z,1005.99
2018-02-01T05:58:38.606Z,1005.96
2018-02-01T05:59:37.996Z,1005.98
2018-02-01T06:00:37.957Z,1005.95
2018-02-01T06:01:38.213Z,1005.89
2018-02-01T06:02:38.945Z,1005.94
2018-02-01T06:03:38.968Z,1005.92
2018-02-01T06:04:39.444Z,1005.89
2018-02-01T06:05:37.900Z,1005.89
2018-02-01T06:06:37.964Z,1005.98
2018-02-01T06:07:38.091Z,1005.93
2018-02-01T06:08:38.652Z,1005.95
2018-02-01T06:09:38.074Z,1006
2018-02-01T06:10:37.913Z,1005.96
2018-02-01T06:11:40.357Z,1005.94
2018-02-01T06:12:37.970Z,1005.97
2018-02-01T06:13:38.028Z,1006.01
2018-02-01T06:14:37.876Z,1005.97
2018-02-01T06:15:37.946Z,1006.01
2018-02-01T06:16:38.318Z,1005.97
2018-02-01T06:17:37.982Z,1005.94
2018-02-01T06:18:37.925Z,1005.99
2018-02-01T06:19:38.211Z,1006.03
2018-02-01T06:20:37.939Z,1005.97
2018-02-01T06:21:38.099Z,1006.04
2018-02-01T06:22:38.120Z,1006.06
2018-02-01T06:23:38.147Z,1006.06
2018-02-01T06:24:38.872Z,1006.06
2018-02-01T06:25:38.283Z,1006.02
2018-02-01T06:26:38.254Z,1006.04
2018-02-01T06:27:38.457Z,1006.09
2018-02-01T06:28:37.893Z,1006.06
2018-02-01T06:29:38.744Z,1006.1
2018-02-01T06:30:37.916Z,1006.1
2018-02-01T06:31:38.195Z,1006.11
2018-02-01T06:32:38.008Z,1006.1
2018-02-01T06:33:38.219Z,1006.09
2018-02-01T06:34:37.987Z,1006.09
2018-02-01T06:35:38.117Z,1006.04
2018-02-01T06:36:37.931Z,1006.04
2018-02-01T06:37:37.939Z,1006.04
2018-02-01T06:38:37.980Z,1005.99
2018-02-01T06:39:37.913Z,1006.03
2018-02-01T06:40:38.018Z,1005.99
2018-02-01T06:41:37.984Z,1006.03
2018-02-01T06:42:38.034Z,1005.99
2018-02-01T06:43:37.958Z,1006
2018-02-01T06:44:37.968Z,1006.04
2018-02-01T06:45:38.541Z,1006.02
2018-02-01T06:46:38.836Z,1006.05
2018-02-01T06:47:38.496Z,1006.04
2018-02-01T06:48:37.945Z,1006.01
2018-02-01T06:49:37.966Z,1005.99
2018-02-01T06:50:38.050Z,1005.99
2018-02-01T06:51:38.014Z,1006
2018-02-01T06:52:38.202Z,1005.99
2018-02-01T06:53:38.233Z,1005.96
2018-02-01T06:54:38.110Z,1006.01
2018-02-01T06:55:38.209Z,1006.03
2018-02-01T06:56:38.204Z,1005.99
2018-02-01T06:57:38.245Z,1006.03
2018-02-01T06:58:38.118Z,1006.05
2018-02-01T06:59:38.206Z,1006.09
2018-02-01T07:00:38.370Z,1006.05
2018-02-01T07:01:38.210Z,1006.04
2018-02-01T07:02:38.180Z,1006.07
2018-02-01T07:03:38.185Z,1006.04
2018-02-01T07:04:38.230Z,1006.14
2018-02-01T07:05:38.237Z,1006.17
2018-02-01T07:06:38.181Z,1006.13
2018-02-01T07:07:38.250Z,1006.22
2018-02-01T07:08:38.182Z,1006.15
2018-02-01T07:09:38.297Z,1006.2
2018-02-01T07:10:38.261Z,1006.21
2018-02-01T07:11:38.290Z,1006.23
2018-02-01T07:12:38.183Z,1006.25
2018-02-01T07:13:38.218Z,1006.29
2018-02-01T07:14:38.202Z,1006.29
2018-02-01T07:15:38.201Z,1006.32
2018-02-01T07:16:38.242Z,1006.28
2018-02-01T07:17:38.550Z,1006.34
2018-02-01T07:18:38.187Z,1006.32
2018-02-01T07:19:38.236Z,1006.31
2018-02-01T07:20:38.134Z,1006.3
2018-02-01T07:21:38.220Z,1006.27
2018-02-01T07:22:38.321Z,1006.29
2018-02-01T07:23:38.219Z,1006.36
2018-02-01T07:24:38.454Z,1006.41
2018-02-01T07:25:38.238Z,1006.45
2018-02-01T07:26:38.238Z,1006.43
2018-02-01T07:27:38.261Z,1006.46
2018-02-01T07:28:38.175Z,1006.45
2018-02-01T07:29:38.250Z,1006.44
2018-02-01T07:30:38.281Z,1006.48
2018-02-01T07:31:38.262Z,1006.47
2018-02-01T07:32:38.159Z,1006.44
2018-02-01T07:33:38.230Z,1006.43
2018-02-01T07:34:38.313Z,1006.49
2018-02-01T07:35:38.188Z,1006.49
2018-02-01T07:36:38.192Z,1006.52
2018-02-01T07:37:38.303Z,1006.55
2018-02-01T07:38:38.239Z,1006.55
2018-02-01T07:39:38.298Z,1006.57
2018-02-01T07:40:38.492Z,1006.58
2018-02-01T07:41:38.178Z,1006.57
2018-02-01T07:42:38.168Z,1006.62
2018-02-01T07:43:38.208Z,1006.71
2018-02-01T07:44:38.222Z,1006.72
2018-02-01T07:45:38.421Z,1006.72
2018-02-01T07:46:38.202Z,1006.72
2018-02-01T07:47:38.576Z,1006.7
2018-02-01T07:48:38.282Z,1006.73
2018-02-01T07:49:38.260Z,1006.74
2018-02-01T07:50:38.289Z,1006.77
2018-02-01T07:51:38.224Z,1006.81
2018-02-01T07:52:39.598Z,1006.8
2018-02-01T07:53:38.493Z,1006.81
2018-02-01T07:54:38.307Z,1006.8
2018-02-01T07:55:38.530Z,1006.78
2018-02-01T07:56:38.345Z,1006.79
2018-02-01T07:57:38.248Z,1006.83
2018-02-01T07:58:38.309Z,1006.85
2018-02-01T07:59:38.247Z,1006.87
2018-02-01T08:00:38.262Z,1006.84
2018-02-01T08:01:38.339Z,1006.84
2018-02-01T08:02:38.267Z,1006.79
2018-02-01T08:03:39.328Z,1006.79
2018-02-01T08:04:38.352Z,1006.78
2018-02-01T08:05:38.344Z,1006.82
2018-02-01T08:06:38.345Z,1006.77
2018-02-01T08:07:38.367Z,1006.74
2018-02-01T08:08:39.194Z,1006.74
2018-02-01T08:09:38.253Z,1006.8
2018-02-01T08:10:38.263Z,1006.81
2018-02-01T08:11:38.316Z,1006.82
2018-02-01T08:12:38.356Z,1006.87
2018-02-01T08:13:38.275Z,1006.94
2018-02-01T08:14:38.267Z,1006.99
2018-02-01T08:15:38.370Z,1007.04
2018-02-01T08:16:38.476Z,1007.04
2018-02-01T08:17:38.329Z,1007.01
2018-02-01T08:18:38.343Z,1007.06
2018-02-01T08:19:38.305Z,1007.09
2018-02-01T08:20:38.269Z,1007.06
2018-02-01T08:21:38.329Z,1007.12
2018-02-01T08:22:38.348Z,1007.11
2018-02-01T08:23:38.377Z,1007.12
2018-02-01T08:24:38.397Z,1007.12
2018-02-01T08:25:38.381Z,1007.14
2018-02-01T08:26:38.638Z,1007.18
2018-02-01T08:27:38.264Z,1007.16
2018-02-01T08:28:38.279Z,1007.23
2018-02-01T08:29:38.305Z,1007.2
2018-02-01T08:30:38.448Z,1007.17
2018-02-01T08:31:38.352Z,1007.19
2018-02-01T08:32:38.337Z,1007.13
2018-02-01T08:33:38.668Z,1007.19
2018-02-01T08:34:38.303Z,1007.19
2018-02-01T08:35:38.369Z,1007.2
2018-02-01T08:36:38.390Z,1007.19
2018-02-01T08:37:38.872Z,1007.17
2018-02-01T08:38:38.644Z,1007.15
2018-02-01T08:39:38.373Z,1007.17
2018-02-01T08:40:38.241Z,1007.24
2018-02-01T08:41:38.350Z,1007.25
2018-02-01T08:42:38.252Z,1007.27
2018-02-01T08:43:38.812Z,1007.26
2018-02-01T08:44:38.262Z,1007.31
2018-02-01T08:45:38.408Z,1007.3
2018-02-01T08:46:38.392Z,1007.29
2018-02-01T08:47:38.405Z,1007.33
2018-02-01T08:48:38.307Z,1007.33
2018-02-01T08:49:38.318Z,1007.35
2018-02-01T08:50:38.311Z,1007.35
2018-02-01T08:51:38.383Z,1007.36
2018-02-01T08:52:38.850Z,1007.36
2018-02-01T08:53:38.809Z,1007.34
2018-02-01T08:54:38.761Z,1007.41
2018-02-01T08:55:38.856Z,1007.39
2018-02-01T08:56:38.728Z,1007.38
2018-02-01T08:57:38.744Z,1007.41
2018-02-01T08:58:38.788Z,1007.38
2018-02-01T08:59:38.788Z,1007.39
2018-02-01T09:00:39.627Z,1007.41
2018-02-01T09:01:38.710Z,1007.43
2018-02-01T09:02:38.903Z,1007.43
2018-02-01T09:03:38.702Z,1007.38
2018-02-01T09:04:38.762Z,1007.45
2018-02-01T09:05:38.598Z,1007.45
2018-02-01T09:06:38.800Z,1007.47
2018-02-01T09:07:38.649Z,1007.44
2018-02-01T09:08:38.987Z,1007.47
2018-02-01T09:09:38.696Z,1007.44
2018-02-01T09:10:38.699Z,1007.48
2018-02-01T09:11:38.641Z,1007.47
2018-02-01T09:12:38.718Z,1007.51
2018-02-01T09:13:38.759Z,1007.51
2018-02-01T09:14:39.004Z,1007.51
2018-02-01T09:15:38.607Z,1007.53
2018-02-01T09:16:38.698Z,1007.5
2018-02-01T09:17:39.541Z,1007.58
2018-02-01T09:18:38.694Z,1007.58
2018-02-01T09:19:38.578Z,1007.58
2018-02-01T09:20:38.662Z,1007.59
2018-02-01T09:21:38.593Z,1007.62
2018-02-01T09:22:39.965Z,1007.56
2018-02-01T09:23:37.825Z,1007.6
2018-02-01T09:24:37.706Z,1007.6
2018-02-01T09:25:37.841Z,1007.65
2018-02-01T09:26:37.732Z,1007.61
2018-02-01T09:27:37.812Z,1007.66
2018-02-01T09:28:37.895Z,1007.63
2018-02-01T09:29:37.832Z,1007.66
2018-02-01T09:30:37.779Z,1007.65
2018-02-01T09:31:37.751Z,1007.65
2018-02-01T09:32:37.793Z,1007.67
2018-02-01T09:33:37.797Z,1007.69
2018-02-01T09:34:37.834Z,1007.71
2018-02-01T09:35:37.850Z,1007.74
2018-02-01T09:36:37.885Z,1007.74
2018-02-01T09:37:37.830Z,1007.7
2018-02-01T09:38:38.843Z,1007.68
2018-02-01T09:39:37.971Z,1007.71
2018-02-01T09:40:37.790Z,1007.68
2018-02-01T09:41:38.719Z,1007.68
2018-02-01T09:42:37.866Z,1007.71
2018-02-01T09:43:38.529Z,1007.71
2018-02-01T09:44:37.878Z,1007.69
2018-02-01T09:45:37.731Z,1007.76
2018-02-01T09:46:37.841Z,1007.73
2018-02-01T09:47:37.759Z,1007.72
2018-02-01T09:48:37.919Z,1007.71
2018-02-01T09:49:37.824Z,1007.71
2018-02-01T09:50:37.882Z,1007.77
2018-02-01T09:51:37.843Z,1007.72
2018-02-01T09:52:37.789Z,1007.76
2018-02-01T09:53:37.884Z,1007.71
2018-02-01T09:54:37.942Z,1007.7
2018-02-01T09:55:37.938Z,1007.72
2018-02-01T09:56:37.954Z,1007.77
2018-02-01T09:57:37.859Z,1007.82
2018-02-01T09:58:37.924Z,1007.82
2018-02-01T09:59:37.952Z,1007.8
2018-02-01T10:00:37.926Z,1007.87
2018-02-01T10:01:38.036Z,1007.89
2018-02-01T10:02:37.902Z,1007.79
2018-02-01T10:03:37.984Z,1007.87
2018-02-01T10:04:37.991Z,1007.85
2018-02-01T10:05:37.972Z,1007.86
2018-02-01T10:06:37.953Z,1007.88
2018-02-01T10:07:37.918Z,1007.87
2018-02-01T10:08:37.967Z,1007.88
2018-02-01T10:09:37.989Z,1007.89
2018-02-01T10:10:38.002Z,1007.9
2018-02-01T10:11:37.960Z,1007.89
2018-02-01T10:12:38.012Z,1007.94
2018-02-01T10:13:38.146Z,1007.93
2018-02-01T10:14:38.015Z,1007.93
2018-02-01T10:15:37.863Z,1007.93
2018-02-01T10:16:37.780Z,1007.91
2018-02-01T10:17:37.867Z,1007.92
2018-02-01T10:18:37.762Z,1007.88
2018-02-01T10:19:37.883Z,1007.9
2018-02-01T10:20:37.845Z,1007.91
2018-02-01T10:21:37.814Z,1007.89
2018-02-01T10:22:37.761Z,1007.84
2018-02-01T10:23:38.004Z,1007.83
2018-02-01T10:24:41.585Z,1007.91
2018-02-01T10:25:38.019Z,1007.84
2018-02-01T10:26:37.942Z,1007.81
2018-02-01T10:27:37.937Z,1007.85
2018-02-01T10:28:37.899Z,1007.9
2018-02-01T10:29:37.976Z,1007.84
2018-02-01T10:30:37.914Z,1007.85
2018-02-01T10:31:38.853Z,1007.76
2018-02-01T10:32:37.945Z,1007.8
2018-02-01T10:33:37.971Z,1007.8
2018-02-01T10:34:37.944Z,1007.78
2018-02-01T10:35:38.495Z,1007.79
2018-02-01T10:36:38.072Z,1007.8
2018-02-01T10:37:37.916Z,1007.82
2018-02-01T10:38:37.855Z,1007.77
2018-02-01T10:39:37.940Z,1007.79
2018-02-01T10:40:38.099Z,1007.8
2018-02-01T10:41:37.959Z,1007.78
2018-02-01T10:42:38.019Z,1007.75
2018-02-01T10:43:37.868Z,1007.69
2018-02-01T10:44:38.211Z,1007.69
2018-02-01T10:45:38.044Z,1007.66
2018-02-01T10:46:37.862Z,1007.66
2018-02-01T10:47:37.940Z,1007.64
2018-02-01T10:48:38.002Z,1007.67
2018-02-01T10:49:37.924Z,1007.69
2018-02-01T10:50:37.918Z,1007.65
2018-02-01T10:51:38.047Z,1007.65
2018-02-01T10:52:37.923Z,1007.64
2018-02-01T10:53:37.947Z,1007.55
2018-02-01T10:54:38.009Z,1007.7
2018-02-01T10:55:38.050Z,1007.64
2018-02-01T10:56:37.949Z,1007.53
2018-02-01T10:57:38.088Z,1007.55
2018-02-01T10:58:38.109Z,1007.58
2018-02-01T10:59:38.090Z,1007.56
2018-02-01T11:00:38.278Z,1007.54
2018-02-01T11:01:38.290Z,1007.47
2018-02-01T11:02:37.969Z,1007.43
2018-02-01T11:03:37.987Z,1007.39
2018-02-01T11:04:38.005Z,1007.47
2018-02-01T11:05:38.111Z,1007.36
2018-02-01T11:06:38.072Z,1007.39
2018-02-01T11:07:38.274Z,1007.34
2018-02-01T11:08:38.108Z,1007.28
2018-02-01T11:09:38.118Z,1007.34
2018-02-01T11:10:38.059Z,1007.27
2018-02-01T11:11:38.036Z,1007.29
2018-02-01T11:12:38.297Z,1007.25
2018-02-01T11:13:38.117Z,1007.24
2018-02-01T11:14:38.057Z,1007.23
2018-02-01T11:15:38.033Z,1007.19
2018-02-01T11:16:38.035Z,1007.23
2018-02-01T11:17:38.138Z,1007.15
2018-02-01T11:18:38.096Z,1007.2
2018-02-01T11:19:38.013Z,1007.19
2018-02-01T11:20:38.211Z,1007.17
2018-02-01T11:21:38.014Z,1007.14
2018-02-01T11:22:38.082Z,1007.24
2018-02-01T11:23:38.179Z,1007.22
2018-02-01T11:24:38.150Z,1007.15
2018-02-01T11:25:38.025Z,1007.15
2018-02-01T11:26:38.065Z,1007.14
2018-02-01T11:27:38.067Z,1007.12
2018-02-01T11:28:37.998Z,1007.08
2018-02-01T11:29:38.094Z,1007.04
2018-02-01T11:30:38.016Z,1007.05
2018-02-01T11:31:38.079Z,1007.08
2018-02-01T11:32:37.975Z,1007.1
2018-02-01T11:33:38.048Z,1007.04
2018-02-01T11:34:38.136Z,1007.01
2018-02-01T11:35:38.064Z,1007.03
2018-02-01T11:36:38.390Z,1007
2018-02-01T11:37:38.057Z,1006.99
2018-02-01T11:38:38.110Z,1007.05
2018-02-01T11:39:37.971Z,1007.01
2018-02-01T11:40:38.157Z,1006.98
2018-02-01T11:41:38.118Z,1007.02
2018-02-01T11:42:38.097Z,1006.97
2018-02-01T11:43:38.037Z,1007.02
2018-02-01T11:44:38.039Z,1007.04
2018-02-01T11:45:38.074Z,1007.02
2018-02-01T11:46:38.139Z,1007.03
2018-02-01T11:47:38.080Z,1007.01
2018-02-01T11:48:38.110Z,1007.01
2018-02-01T11:49:38.100Z,1007.03
2018-02-01T11:50:38.145Z,1007.04
2018-02-01T11:51:38.012Z,1007.02
2018-02-01T11:52:38.128Z,1007.03
2018-02-01T11:53:38.151Z,1007
2018-02-01T11:54:38.383Z,1007.06
2018-02-01T11:55:38.134Z,1007.05
2018-02-01T11:56:38.221Z,1007.03
2018-02-01T11:57:38.163Z,1007
2018-02-01T11:58:38.148Z,1006.99
2018-02-01T11:59:39.155Z,1007.08
2018-02-01T12:00:38.251Z,1007.07
2018-02-01T12:01:38.227Z,1007.06
2018-02-01T12:02:38.918Z,1007.07
2018-02-01T12:03:38.094Z,1007.08
2018-02-01T12:04:38.221Z,1007.05
2018-02-01T12:05:38.066Z,1007.08
2018-02-01T12:06:38.233Z,1007.14
2018-02-01T12:07:39.743Z,1007.07
2018-02-01T12:08:38.017Z,1007.07
2018-02-01T12:09:38.029Z,1007.09
2018-02-01T12:10:38.034Z,1007.11
2018-02-01T12:11:38.106Z,1007.08
2018-02-01T12:12:38.066Z,1007.09
2018-02-01T12:13:39.574Z,1007.13
2018-02-01T12:14:38.059Z,1007.17
2018-02-01T12:15:38.061Z,1007.12